For quick login in and fast entrance.
M’enregistrer FAQ Connexion 
Poster un nouveau sujet Répondre au sujet  [ 2 messages ] 

Mer 08 Jan 2020 00:59

 Sortie de piste d’un Boeing 737 de Pegasus Airlines, Turquie
MessagePosté: Mer 08 Jan 2020 00:59 
Hors ligne
Amiral de l'Air
Avatar de l’utilisateur

Inscription: Mer 03 Juin 2009 14:15
Localisation: Près de Morlaix-Ploujean (LFRU)
Date: 07 janvier 2020
Heure: 09:00 LT

Type: Boeing 737-82R (WL)
Propriétaire / exploitant: Pegasus Airlines
Immatriculation: TC-CCK
C / n / msn: 35699/2712

Victimes: 0 / Occupants: 164
Autres décès: 0
Dommages: substantiels
Catégorie: Incident grave

Lieu: Aéroport international Sabiha Gökçen d'Istanbul - Turquie
Phase: Atterrissage
Nature: Passagers réguliers internationaux

Aéroport de départ: Sharjah Airport (SHJ / OMSJ)
Aéroport d'arrivée: Istanbul-Sabiha Gökçen International Airport (SAW / LTFJ)

Le vol 747 de Pegasus Airlines, un Boeing 737-800, a subi une sortie de piste après avoir atterri sur la piste 06 à l'aéroport Sabiha Gökçen d'Istanbul. Les passagers ont évacué l'avion à l'aide de toboggans.

Météo au moment de l'incident: (0609Z)
LTFJ 070620Z 03027G37KT 8000 -SHRA SCT011 BKN030 BKN080 06/04 Q1014 NOSIG RMK RWY24 02024KT
LTFJ 070550Z 03024G36KT 7000 -SHRA SCT011 BKN030 BKN080 06/05 Q1014 NOSIG RMK RWY24 02024KT

http://aeronauticsonline.com/pegasus-bo ... ff-runway/
https://www.flightradar24.com/data/airc ... k#23700c16

http://www.goklerdeyiz.net/pistten-cika ... ograflari/


_________________
Image


  
home Haut
 Profil  
Répondre en citant le message  
Aider le Site avec PayPal

Mer 08 Jan 2020 08:58

 Re: Sortie de piste d’un Boeing 737 de Pegasus Airlines, Turquie
MessagePosté: Mer 08 Jan 2020 08:58 
Hors ligne
Observateur Avisé
Observateur Avisé

Inscription: Mar 21 Sep 2010 12:29
Localisation: Un mec du nord.
2 sorties de pistes en moins de 4 mois pour pégasus sans décès mais c'est assez étrange. Je me souviens des interviews de pilotes de turkish parlant d'une extrême fatigue. A corréler peut être.


  
home Haut
 Profil  
Répondre en citant le message  
Afficher les messages postés depuis:  Trier par  
Poster un nouveau sujet Répondre au sujet  [ 2 messages ] 

Heures au format UTC + 1 heure


Qui est en ligne

Utilisateurs parcourant ce forum: Aucun utilisateur enregistré et 2 invités


Vous ne pouvez pas poster de nouveaux sujets
Vous ne pouvez pas répondre aux sujets
Vous ne pouvez pas éditer vos messages
Vous ne pouvez pas supprimer vos messages

Aller à:  
Flux RSS Flux RSS Liste des flux Liste des flux
0 Développé par phpBB® Forum Software © phpBB Group
Traduction par phpBB-fr.com
phpBB SEO